Time;durP1;ratioP1;P1;durP2;ratioP2;P2;SDS_P1;SDS_P2;PMS_P1;PMS_P2;Temp;Humidity;BMP_temperature;BMP_pressure;BME280_temperature;BME280_humidity;BME280_pressure;Samples;Min_cycle;Max_cycle;Signal;HPM_P1;HPM_P2
2023/03/29 00:02:00;;;;;;;10.38;5.35;;;;;;;11.66;54.18;98409.72;5040916;28;20048;-76
2023/03/29 00:04:32;;;;;;;8.00;4.70;;;;;;;11.60;54.68;98415.78;5007462;28;20440;-76
2023/03/29 00:07:03;;;;;;;6.63;4.28;;;;;;;11.57;54.50;98407.38;5021782;28;20045;-76
2023/03/29 00:09:31;;;;;;;11.13;4.78;;;;;;;11.80;54.83;98413.28;5004740;28;20110;-75
2023/03/29 00:11:58;;;;;;;9.43;4.75;;;;;;;11.91;54.60;98418.06;5021087;28;20040;-75
2023/03/29 00:14:25;;;;;;;7.60;4.95;;;;;;;11.52;53.99;98407.13;5038712;28;20061;-75
2023/03/29 00:16:51;;;;;;;7.45;4.63;;;;;;;11.75;54.54;98410.38;5056008;28;20059;-75
2023/03/29 00:19:17;;;;;;;6.63;4.07;;;;;;;11.65;54.23;98405.41;5003714;28;20186;-76
2023/03/29 00:21:43;;;;;;;4.75;3.85;;;;;;;11.62;53.81;98405.78;5054137;28;20375;-75
2023/03/29 00:24:08;;;;;;;10.50;4.75;;;;;;;11.32;54.74;98398.16;4987522;28;20049;-75
2023/03/29 00:26:34;;;;;;;7.93;4.80;;;;;;;11.52;54.76;98393.81;5003792;28;20049;-76
2023/03/29 00:29:00;;;;;;;10.13;5.28;;;;;;;11.50;54.72;98388.69;5020271;28;20041;-76
2023/03/29 00:31:27;;;;;;;8.32;4.82;;;;;;;11.75;55.23;98405.06;5003482;28;20499;-75
2023/03/29 00:33:53;;;;;;;10.55;5.13;;;;;;;11.63;54.40;98411.94;5020071;28;20561;-74
2023/03/29 00:36:21;;;;;;;9.02;4.90;;;;;;;11.43;54.25;98408.28;5003614;28;20217;-76
2023/03/29 00:38:46;;;;;;;9.60;4.32;;;;;;;11.54;54.55;98399.78;5003738;28;20045;-75
2023/03/29 00:41:12;;;;;;;14.75;5.50;;;;;;;11.62;54.43;98394.31;4987560;28;20486;-75
2023/03/29 00:43:57;;;;;;;11.77;5.50;;;;;;;12.12;54.07;98398.50;5020367;28;20044;-75
2023/03/29 00:46:26;;;;;;;11.27;4.70;;;;;;;11.83;54.23;98394.28;5036663;28;20056;-76
2023/03/29 00:48:53;;;;;;;15.65;5.95;;;;;;;11.45;55.27;98383.16;4986451;28;20041;-74
2023/03/29 00:51:20;;;;;;;8.93;5.63;;;;;;;11.44;55.19;98389.47;5019616;28;20091;-75
2023/03/29 00:53:52;;;;;;;15.25;6.03;;;;;;;11.39;55.90;98393.75;5019742;28;20045;-74
2023/03/29 00:56:33;;;;;;;12.98;4.65;;;;;;;11.76;55.50;98388.91;5019545;28;20072;-75
2023/03/29 00:59:03;;;;;;;9.23;5.22;;;;;;;11.52;55.26;98380.53;5003520;28;20063;-75
2023/03/29 01:01:53;;;;;;;8.65;4.55;;;;;;;11.93;55.26;98388.59;5019741;28;20049;-75
2023/03/29 01:04:41;;;;;;;11.68;5.00;;;;;;;11.77;55.43;98392.41;5003504;28;20463;-75
2023/03/29 01:07:21;;;;;;;8.52;4.55;;;;;;;11.73;55.79;98383.19;5002991;28;20049;-75
2023/03/29 01:10:00;;;;;;;7.72;4.55;;;;;;;11.75;55.54;98378.47;5020592;28;20041;-75
2023/03/29 01:12:31;;;;;;;6.57;4.20;;;;;;;11.69;55.20;98368.59;4986877;28;20048;-75
2023/03/29 01:15:14;;;;;;;5.15;3.60;;;;;;;11.89;54.53;98364.22;5019326;28;20060;-74
2023/03/29 01:17:43;;;;;;;11.18;4.68;;;;;;;11.11;55.58;98359.19;5019551;28;20508;-75
2023/03/29 01:20:21;;;;;;;12.07;4.90;;;;;;;11.59;55.97;98345.00;4998198;28;20136;-75
2023/03/29 01:23:21;;;;;;;7.28;3.90;;;;;;;11.72;55.47;98349.59;5014969;28;20049;-75
2023/03/29 01:26:24;;;;;;;7.35;4.00;;;;;;;11.96;54.75;98354.44;4998171;28;20151;-76
2023/03/29 01:29:02;;;;;;;10.25;3.90;;;;;;;11.89;54.15;98350.91;5014493;28;20057;-75
2023/03/29 01:31:35;;;;;;;5.95;3.65;;;;;;;11.80;54.01;98336.97;5014562;28;20042;-75
2023/03/29 01:34:09;;;;;;;5.60;3.50;;;;;;;11.68;54.73;98337.72;4998222;28;20037;-75
2023/03/29 01:36:42;;;;;;;9.10;4.05;;;;;;;11.76;54.37;98342.88;5031379;28;20073;-75
2023/03/29 01:39:08;;;;;;;8.38;3.92;;;;;;;11.24;53.89;98358.47;4981679;28;20037;-75
2023/03/29 01:42:13;;;;;;;8.07;3.80;;;;;;;12.09;54.12;98343.84;4982376;28;20041;-76
2023/03/29 01:44:48;;;;;;;4.65;3.47;;;;;;;11.76;54.47;98338.38;4959297;28;20123;-76
2023/03/29 01:47:17;;;;;;;9.00;3.58;;;;;;;11.80;54.64;98329.00;4998055;28;20424;-76
2023/03/29 01:49:55;;;;;;;4.63;3.92;;;;;;;11.77;53.89;98336.53;4997959;28;20041;-77
2023/03/29 01:52:30;;;;;;;8.73;3.45;;;;;;;12.06;53.66;98325.63;5034870;28;20494;-74
2023/03/29 01:55:02;;;;;;;6.60;3.97;;;;;;;11.88;54.35;98326.13;5002242;28;20394;-74
2023/03/29 01:57:30;;;;;;;5.38;3.60;;;;;;;11.77;53.93;98328.56;5034840;28;20053;-74
2023/03/29 01:59:56;;;;;;;5.88;3.25;;;;;;;11.63;53.95;98326.84;5034862;28;20472;-73
2023/03/29 02:02:23;;;;;;;7.88;3.28;;;;;;;11.67;53.44;98330.75;5034864;28;20613;-73
2023/03/29 02:04:52;;;;;;;5.25;3.50;;;;;;;11.79;54.17;98323.88;5018541;28;20471;-74
2023/03/29 02:07:21;;;;;;;8.82;3.83;;;;;;;11.87;53.86;98327.16;5018293;28;20140;-74
2023/03/29 02:09:48;;;;;;;8.70;4.20;;;;;;;11.64;54.36;98308.03;5001727;28;20128;-74
2023/03/29 02:12:15;;;;;;;8.93;3.13;;;;;;;11.48;54.97;98304.84;4985857;28;20059;-73
2023/03/29 02:14:42;;;;;;;11.60;3.58;;;;;;;11.53;53.61;98302.44;5018173;28;20134;-74
2023/03/29 02:17:17;;;;;;;8.93;3.40;;;;;;;11.76;55.15;98295.81;4985842;28;20395;-74
2023/03/29 02:19:45;;;;;;;5.95;3.45;;;;;;;11.64;54.27;98307.19;5001849;28;20041;-77
2023/03/29 02:22:11;;;;;;;5.47;3.40;;;;;;;11.92;53.30;98307.16;5034566;28;20091;-75
2023/03/29 02:24:41;;;;;;;4.72;3.60;;;;;;;12.06;52.91;98308.81;5018425;28;20052;-77
2023/03/29 02:27:07;;;;;;;6.22;3.70;;;;;;;11.62;52.82;98293.28;5002226;28;20041;-75
2023/03/29 02:29:33;;;;;;;8.50;3.80;;;;;;;11.69;52.68;98310.09;5000986;28;20476;-75
2023/03/29 02:32:31;;;;;;;7.88;3.75;;;;;;;12.18;53.39;98302.72;4981831;28;20041;-76
2023/03/29 02:35:00;;;;;;;6.75;3.90;;;;;;;11.83;53.17;98291.34;5024953;28;20064;-76
2023/03/29 02:37:29;;;;;;;5.68;3.45;;;;;;;11.79;53.97;98297.28;5014576;28;20075;-76
2023/03/29 02:39:56;;;;;;;5.78;3.83;;;;;;;11.64;53.87;98272.63;4998344;28;20434;-76
2023/03/29 02:42:23;;;;;;;8.07;3.97;;;;;;;11.81;53.78;98298.69;4998195;28;20077;-76
2023/03/29 02:44:52;;;;;;;5.40;3.72;;;;;;;11.84;54.09;98298.31;5014412;28;20108;-76
2023/03/29 02:47:26;;;;;;;6.68;4.07;;;;;;;11.95;53.44;98299.56;5001620;28;20036;-74
2023/03/29 02:49:51;;;;;;;6.22;3.80;;;;;;;11.67;53.18;98286.38;5034309;28;20087;-75
2023/03/29 02:52:22;;;;;;;7.30;3.95;;;;;;;12.11;52.85;98288.59;4985881;28;20072;-75
2023/03/29 02:54:50;;;;;;;7.75;3.83;;;;;;;11.93;52.71;98276.84;5018174;28;20040;-75
2023/03/29 02:57:16;;;;;;;7.20;3.63;;;;;;;12.03;51.98;98278.13;5001900;28;20071;-75
2023/03/29 02:59:43;;;;;;;8.48;4.22;;;;;;;11.78;52.14;98277.00;5002304;28;20055;-77
2023/03/29 03:02:10;;;;;;;9.25;3.42;;;;;;;11.85;51.84;98283.97;5003577;28;20068;-75
2023/03/29 03:04:37;;;;;;;6.55;3.97;;;;;;;11.91;52.33;98285.03;4987085;28;20064;-76
2023/03/29 03:07:06;;;;;;;10.63;3.80;;;;;;;12.00;51.85;98267.03;5003087;28;20049;-75
2023/03/29 03:09:32;;;;;;;8.95;4.35;;;;;;;11.98;51.61;98288.53;4985715;28;20052;-76
2023/03/29 03:11:58;;;;;;;8.93;3.92;;;;;;;11.79;52.08;98284.78;4987931;28;20058;-75
2023/03/29 03:14:27;;;;;;;9.75;3.80;;;;;;;11.86;52.06;98295.44;4989506;28;20056;-75
2023/03/29 03:16:56;;;;;;;6.35;3.42;;;;;;;12.02;52.28;98270.34;5022752;28;20049;-75
2023/03/29 03:19:22;;;;;;;6.88;3.25;;;;;;;11.93;51.71;98267.03;5021400;28;20391;-76
2023/03/29 03:21:49;;;;;;;7.25;3.90;;;;;;;11.95;52.21;98266.84;5005216;28;20083;-76
2023/03/29 03:24:16;;;;;;;6.97;3.80;;;;;;;11.93;52.13;98275.03;5005028;28;20068;-76
2023/03/29 03:26:45;;;;;;;9.55;3.85;;;;;;;11.97;51.59;98270.09;5005239;28;20041;-75
2023/03/29 03:29:15;;;;;;;12.90;3.92;;;;;;;12.49;52.11;98278.22;5005383;28;20049;-75
2023/03/29 03:31:59;;;;;;;5.38;3.47;;;;;;;11.88;51.83;98278.25;5016505;28;20439;-76
2023/03/29 03:34:45;;;;;;;8.32;3.70;;;;;;;12.09;51.19;98273.81;5003791;28;20045;-76
2023/03/29 03:37:11;;;;;;;5.07;3.65;;;;;;;11.89;52.17;98289.72;4984333;28;20245;-76
2023/03/29 03:39:38;;;;;;;6.78;3.60;;;;;;;11.79;51.93;98286.63;5000386;28;20077;-77
2023/03/29 03:42:06;;;;;;;7.20;3.53;;;;;;;12.06;51.55;98287.53;4983253;28;20049;-77
2023/03/29 03:44:33;;;;;;;6.35;3.53;;;;;;;11.93;51.84;98286.47;4983147;28;20065;-75
2023/03/29 03:47:18;;;;;;;5.70;3.78;;;;;;;11.74;51.87;98265.97;4988326;28;20094;-77
2023/03/29 03:49:44;;;;;;;6.75;3.85;;;;;;;12.01;51.36;98252.75;4984281;28;20061;-76
2023/03/29 03:52:10;;;;;;;9.02;3.53;;;;;;;12.11;50.89;98259.31;5000097;28;20112;-70
2023/03/29 03:54:36;;;;;;;11.90;4.40;;;;;;;12.34;50.41;98267.75;4999850;28;20534;-68
2023/03/29 03:57:24;;;;;;;6.80;3.60;;;;;;;12.12;50.69;98268.94;5001920;28;20560;-69
2023/03/29 03:59:51;;;;;;;9.65;3.83;;;;;;;12.00;50.85;98267.88;4999673;28;20073;-71
2023/03/29 04:02:26;;;;;;;15.05;4.32;;;;;;;12.67;49.86;98260.59;4974708;28;20067;-67
2023/03/29 04:04:53;;;;;;;18.15;4.53;;;;;;;12.66;49.01;98243.00;4998336;28;20053;-72
2023/03/29 04:07:20;;;;;;;6.47;3.65;;;;;;;12.33;49.36;98246.66;4998701;28;20095;-70
2023/03/29 04:10:02;;;;;;;13.32;3.78;;;;;;;12.53;49.37;98234.19;4999838;28;20052;-74
2023/03/29 04:12:48;;;;;;;4.75;2.95;;;;;;;12.48;50.00;98234.81;4999926;28;20045;-70
2023/03/29 04:15:16;;;;;;;5.90;3.70;;;;;;;12.79;49.35;98229.66;5013554;28;20393;-69
2023/03/29 04:17:49;;;;;;;4.55;3.30;;;;;;;12.50;49.50;98240.72;4996524;28;20064;-71
2023/03/29 04:20:44;;;;;;;6.68;3.40;;;;;;;12.34;49.75;98205.69;4967689;28;20371;-71
2023/03/29 04:23:12;;;;;;;4.15;2.92;;;;;;;12.34;50.06;98241.13;4948249;28;20054;-71
2023/03/29 04:25:39;;;;;;;10.57;3.10;;;;;;;12.76;49.05;98231.94;4964512;28;20082;-72
2023/03/29 04:28:34;;;;;;;6.97;3.58;;;;;;;12.70;48.51;98259.41;4953437;28;20335;-72
2023/03/29 04:31:20;;;;;;;6.32;3.55;;;;;;;12.79;48.24;98247.50;4984924;28;20463;-70
2023/03/29 04:34:15;;;;;;;5.68;2.90;;;;;;;12.69;48.29;98223.94;5018311;28;20055;-69
2023/03/29 04:36:43;;;;;;;8.02;3.55;;;;;;;12.62;49.08;98252.44;5053031;28;20158;-70
2023/03/29 04:39:18;;;;;;;6.75;3.53;;;;;;;12.86;48.10;98237.66;5058644;28;20037;-71
2023/03/29 04:41:48;;;;;;;15.93;3.40;;;;;;;12.62;48.57;98223.13;5034967;28;20044;-71
2023/03/29 04:44:19;;;;;;;9.13;2.80;;;;;;;12.58;48.17;98234.38;5018728;28;20409;-71
2023/03/29 04:46:45;;;;;;;9.32;2.63;;;;;;;12.93;48.33;98241.94;5037179;28;20074;-69
2023/03/29 04:49:22;;;;;;;3.60;2.90;;;;;;;12.89;47.42;98238.06;5053844;28;20086;-70
2023/03/29 04:51:50;;;;;;;10.90;2.90;;;;;;;12.70;48.59;98228.25;5014018;28;20037;-70
2023/03/29 04:54:20;;;;;;;5.65;3.08;;;;;;;12.97;48.42;98231.72;5037737;28;20056;-71
2023/03/29 04:57:05;;;;;;;11.35;2.75;;;;;;;13.05;47.52;98261.66;5052126;28;20067;-72
2023/03/29 04:59:50;;;;;;;7.80;2.30;;;;;;;12.88;47.95;98238.28;5036482;28;20066;-68
2023/03/29 05:02:37;;;;;;;3.72;2.53;;;;;;;12.98;47.70;98226.16;5038337;28;20098;-72
2023/03/29 05:05:06;;;;;;;4.53;2.90;;;;;;;13.63;47.33;98224.38;5020018;28;20040;-71
2023/03/29 05:07:32;;;;;;;5.10;2.80;;;;;;;13.10;47.25;98240.53;5037129;28;20562;-72
2023/03/29 05:09:58;;;;;;;10.90;4.22;;;;;;;13.19;47.19;98236.59;5019936;28;20128;-72
2023/03/29 05:12:27;;;;;;;3.47;2.80;;;;;;;13.26;46.99;98231.28;5036645;28;20079;-72
2023/03/29 05:14:56;;;;;;;4.78;3.08;;;;;;;13.20;46.66;98243.59;5005596;28;20109;-71
2023/03/29 05:17:26;;;;;;;6.35;2.75;;;;;;;13.25;46.98;98229.66;5021044;28;20033;-73
2023/03/29 05:19:53;;;;;;;4.45;2.72;;;;;;;13.44;46.81;98244.75;5037075;28;20117;-75
2023/03/29 05:22:22;;;;;;;6.20;2.75;;;;;;;13.55;45.87;98250.28;5019775;28;20044;-75
2023/03/29 05:24:50;;;;;;;7.00;2.97;;;;;;;13.73;45.25;98262.91;5037518;28;20052;-71
2023/03/29 05:27:19;;;;;;;3.88;2.53;;;;;;;13.71;45.80;98258.81;5035705;28;20556;-73
2023/03/29 05:29:57;;;;;;;10.73;2.78;;;;;;;13.52;45.65;98217.84;5033178;28;20080;-71
2023/03/29 05:32:29;;;;;;;5.28;2.45;;;;;;;13.58;45.58;98260.50;5036736;28;20064;-73
2023/03/29 05:34:55;;;;;;;3.92;2.67;;;;;;;13.71;45.30;98248.16;5036775;28;20365;-72
2023/03/29 05:37:21;;;;;;;10.60;2.90;;;;;;;14.20;44.55;98251.00;5036700;28;20510;-72
2023/03/29 05:39:53;;;;;;;3.88;2.72;;;;;;;13.82;44.81;98255.50;4989683;28;20099;-72
2023/03/29 05:42:24;;;;;;;2.90;2.35;;;;;;;13.94;44.60;98248.47;4983251;28;20520;-72
2023/03/29 05:45:05;;;;;;;9.33;2.57;;;;;;;13.76;45.15;98248.34;5014210;28;20037;-72
2023/03/29 05:47:31;;;;;;;4.90;2.22;;;;;;;13.68;44.88;98235.25;5014474;28;20284;-72
2023/03/29 05:49:57;;;;;;;5.05;2.60;;;;;;;13.87;44.92;98250.34;5009938;28;20051;-72
2023/03/29 05:52:23;;;;;;;6.30;2.85;;;;;;;13.63;44.64;98265.22;5036252;28;20127;-72
2023/03/29 05:54:50;;;;;;;4.10;2.20;;;;;;;13.84;44.96;98259.59;5052443;28;20032;-72
2023/03/29 05:57:16;;;;;;;7.70;2.45;;;;;;;13.84;44.61;98243.56;5035875;28;20040;-72
2023/03/29 05:59:43;;;;;;;2.63;2.08;;;;;;;13.84;44.68;98243.56;5019687;28;20059;-72
2023/03/29 06:02:10;;;;;;;5.75;2.35;;;;;;;13.98;45.33;98237.16;5053651;28;20045;-73
2023/03/29 06:04:41;;;;;;;9.52;2.40;;;;;;;14.01;44.83;98252.72;5054169;28;20048;-72
2023/03/29 06:07:32;;;;;;;5.28;2.28;;;;;;;14.12;44.22;98233.38;5043367;28;20140;-72
2023/03/29 06:10:19;;;;;;;4.03;2.00;;;;;;;13.86;44.91;98230.03;5042073;28;20044;-72
2023/03/29 06:12:49;;;;;;;4.35;2.10;;;;;;;14.05;44.83;98245.13;5021276;28;20075;-72
2023/03/29 06:15:18;;;;;;;5.38;2.22;;;;;;;13.90;44.62;98249.94;5037350;28;20094;-72
2023/03/29 06:17:48;;;;;;;7.63;2.28;;;;;;;14.21;44.07;98233.94;5038029;28;20049;-72
2023/03/29 06:20:15;;;;;;;6.28;2.33;;;;;;;13.99;43.99;98262.00;5004670;28;20062;-70
2023/03/29 06:22:46;;;;;;;3.13;2.10;;;;;;;14.35;43.92;98232.84;5020983;28;20139;-71
2023/03/29 06:25:14;;;;;;;4.80;2.03;;;;;;;14.36;43.57;98280.69;5037393;28;20071;-72
2023/03/29 06:27:41;;;;;;;5.72;2.53;;;;;;;14.07;43.77;98240.41;5037544;28;20544;-72
2023/03/29 06:30:08;;;;;;;4.00;2.50;;;;;;;14.39;43.76;98252.75;5020433;28;20036;-72
2023/03/29 06:32:36;;;;;;;5.63;2.05;;;;;;;14.39;43.80;98242.88;5021172;28;20040;-71
2023/03/29 06:35:22;;;;;;;4.47;2.28;;;;;;;14.06;44.10;98244.91;5003161;28;20056;-71
2023/03/29 06:37:55;;;;;;;2.47;1.88;;;;;;;14.49;44.17;98237.06;5037953;28;20051;-71
2023/03/29 06:41:05;;;;;;;4.68;2.20;;;;;;;14.67;46.40;98237.94;5052610;28;20178;-71
2023/03/29 06:43:48;;;;;;;5.57;2.13;;;;;;;14.11;46.86;98249.59;5036648;28;20432;-72
2023/03/29 06:46:15;;;;;;;4.28;1.80;;;;;;;13.94;47.11;98235.94;5036056;28;20044;-72
2023/03/29 06:48:53;;;;;;;6.32;2.13;;;;;;;14.12;46.49;98236.03;5023546;28;20113;-72
2023/03/29 06:51:21;;;;;;;3.55;1.95;;;;;;;14.18;46.35;98231.69;5004329;28;20048;-71
2023/03/29 06:53:47;;;;;;;5.90;2.10;;;;;;;14.30;45.32;98227.34;5020001;28;20049;-72
2023/03/29 06:56:14;;;;;;;3.72;2.17;;;;;;;14.22;45.92;98243.59;5020672;28;20040;-71
2023/03/29 06:58:46;;;;;;;2.92;2.13;;;;;;;14.19;45.94;98241.34;5037741;28;20051;-72
2023/03/29 07:01:33;;;;;;;3.92;2.03;;;;;;;13.69;46.32;98223.53;5055783;28;20131;-72
2023/03/29 07:04:08;;;;;;;3.00;2.17;;;;;;;14.21;47.28;98215.22;5006172;28;20028;-72
2023/03/29 07:06:47;;;;;;;3.70;2.03;;;;;;;14.36;46.74;98223.81;5023460;28;20095;-72
2023/03/29 07:09:15;;;;;;;7.03;2.00;;;;;;;14.81;46.68;98226.13;5004948;28;20040;-72
2023/03/29 07:12:01;;;;;;;3.70;2.00;;;;;;;14.47;46.24;98252.47;5054864;28;20063;-71
2023/03/29 07:14:28;;;;;;;3.33;2.00;;;;;;;14.26;47.77;98226.13;5028627;28;20053;-72
2023/03/29 07:16:57;;;;;;;7.57;2.30;;;;;;;14.40;47.12;98235.69;4997456;28;20095;-72
2023/03/29 07:19:33;;;;;;;4.78;2.10;;;;;;;14.21;47.13;98224.06;5014952;28;20041;-72
2023/03/29 07:22:08;;;;;;;3.33;2.00;;;;;;;13.65;48.41;98244.50;4998389;28;20048;-68
2023/03/29 07:24:45;;;;;;;2.08;1.88;;;;;;;13.83;48.31;98228.59;5015009;28;20046;-69
2023/03/29 07:27:15;;;;;;;3.28;2.03;;;;;;;13.69;48.65;98226.19;5014148;28;20096;-71
2023/03/29 07:29:41;;;;;;;5.10;2.05;;;;;;;14.09;48.95;98222.28;5013415;28;20538;-71
2023/03/29 07:32:07;;;;;;;5.72;2.35;;;;;;;14.00;48.85;98234.25;4958868;28;20166;-71
2023/03/29 07:34:42;;;;;;;4.28;2.30;;;;;;;14.37;47.33;98236.13;4975919;28;20042;-71
2023/03/29 07:37:15;;;;;;;3.30;2.33;;;;;;;14.49;46.98;98221.03;4959402;28;20261;-72
2023/03/29 07:39:44;;;;;;;4.20;2.03;;;;;;;14.32;46.59;98230.59;4980993;28;20056;-71
2023/03/29 07:42:32;;;;;;;4.78;2.70;;;;;;;13.92;47.03;98224.66;4996733;28;20061;-71
2023/03/29 07:44:58;;;;;;;5.45;2.00;;;;;;;14.19;46.73;98222.66;4993651;28;20050;-71
2023/03/29 07:47:31;;;;;;;5.55;1.90;;;;;;;14.59;46.21;98238.22;4993661;28;20049;-71
2023/03/29 07:49:58;;;;;;;3.90;1.90;;;;;;;14.77;45.77;98243.63;4993371;28;20041;-71
2023/03/29 07:52:26;;;;;;;2.70;2.22;;;;;;;14.06;46.86;98242.25;4977174;28;20037;-72
2023/03/29 07:54:54;;;;;;;3.70;2.15;;;;;;;14.21;47.35;98257.97;4978028;28;20478;-71
2023/03/29 07:57:40;;;;;;;2.60;1.95;;;;;;;14.30;46.84;98240.72;4997532;28;20038;-71
2023/03/29 08:00:13;;;;;;;3.97;1.98;;;;;;;14.77;46.83;98230.28;5013024;28;21121;-71
2023/03/29 08:02:40;;;;;;;5.13;1.92;;;;;;;14.97;45.67;98236.28;5013408;28;20050;-71
2023/03/29 08:05:07;;;;;;;3.67;1.90;;;;;;;14.40;46.74;98255.22;5008801;28;20187;-72
2023/03/29 08:07:58;;;;;;;2.75;2.05;;;;;;;14.34;47.42;98252.59;5018198;28;20400;-71
2023/03/29 08:10:45;;;;;;;2.75;2.10;;;;;;;14.23;49.45;98247.88;5016364;28;20087;-72
2023/03/29 08:13:26;;;;;;;5.93;2.38;;;;;;;14.45;49.00;98235.88;5001434;28;20037;-72
2023/03/29 08:16:12;;;;;;;2.78;2.10;;;;;;;14.25;49.83;98240.53;5013832;28;20354;-73
2023/03/29 08:18:48;;;;;;;4.57;2.20;;;;;;;14.01;50.14;98238.59;5001039;28;20485;-72
2023/03/29 08:21:14;;;;;;;2.92;2.03;;;;;;;14.10;50.03;98232.75;5000544;28;20037;-72
2023/03/29 08:23:44;;;;;;;6.82;2.92;;;;;;;14.53;49.87;98240.97;5000366;28;20291;-72
2023/03/29 08:26:17;;;;;;;5.28;2.20;;;;;;;14.17;49.42;98219.38;5032272;28;20051;-71
2023/03/29 08:28:43;;;;;;;4.68;2.30;;;;;;;14.58;50.07;98238.44;5016068;28;20487;-72
2023/03/29 08:31:10;;;;;;;2.75;2.03;;;;;;;13.89;50.71;98210.91;5015947;28;20483;-71
2023/03/29 08:33:38;;;;;;;4.00;2.33;;;;;;;14.18;51.83;98231.69;4984075;28;20064;-71
2023/03/29 08:36:23;;;;;;;5.47;2.90;;;;;;;14.46;52.87;98216.97;5018134;28;20080;-71
2023/03/29 08:38:52;;;;;;;4.90;2.40;;;;;;;14.18;53.18;98199.66;5015481;28;20037;-72
2023/03/29 08:41:53;;;;;;;3.30;2.30;;;;;;;14.37;53.12;98194.22;5015722;28;20044;-71
2023/03/29 08:44:54;;;;;;;4.18;2.63;;;;;;;14.88;53.34;98223.41;4943636;28;20054;-71
2023/03/29 08:47:33;;;;;;;3.15;2.42;;;;;;;14.93;54.14;98202.16;4896090;29;20491;-70
2023/03/29 08:49:59;;;;;;;2.90;2.40;;;;;;;14.13;53.67;98212.84;4864701;29;20057;-71
2023/03/29 08:52:40;;;;;;;6.47;2.60;;;;;;;14.85;54.41;98223.84;4880365;29;20413;-72
2023/03/29 08:55:30;;;;;;;4.35;2.40;;;;;;;14.62;54.56;98196.91;4952812;28;20071;-71
2023/03/29 08:58:23;;;;;;;6.93;2.60;;;;;;;14.96;54.63;98207.88;4991313;28;20057;-71
2023/03/29 09:00:56;;;;;;;6.38;2.38;;;;;;;14.83;54.08;98202.66;5028165;28;20115;-71
2023/03/29 09:03:31;;;;;;;4.20;2.47;;;;;;;14.75;55.26;98207.47;5015378;28;20124;-70
2023/03/29 09:06:05;;;;;;;6.32;2.40;;;;;;;14.51;54.94;98195.75;5030804;28;20041;-71
2023/03/29 09:08:43;;;;;;;4.95;2.55;;;;;;;14.86;55.41;98186.19;4998289;28;20365;-70
2023/03/29 09:11:08;;;;;;;5.88;2.53;;;;;;;14.40;56.25;98204.47;5031424;28;20893;-72
2023/03/29 09:13:42;;;;;;;4.35;2.78;;;;;;;14.59;56.56;98178.63;4998540;28;20412;-71
2023/03/29 09:16:14;;;;;;;9.55;2.72;;;;;;;14.68;57.76;98193.34;5031570;28;20063;-70
2023/03/29 09:18:41;;;;;;;6.50;3.00;;;;;;;13.92;58.71;98219.31;5031750;28;20083;-70
2023/03/29 09:21:10;;;;;;;4.95;3.00;;;;;;;14.14;58.24;98211.81;4998932;28;20057;-70
2023/03/29 09:23:53;;;;;;;4.95;3.30;;;;;;;14.28;59.52;98226.75;4998725;28;20053;-71
2023/03/29 09:26:48;;;;;;;3.42;2.67;;;;;;;14.24;60.68;98210.31;5015844;28;20056;-71
2023/03/29 09:29:42;;;;;;;5.85;3.38;;;;;;;13.49;61.43;98195.09;5003044;28;20069;-69
2023/03/29 09:32:37;;;;;;;7.47;3.30;;;;;;;14.42;62.35;98212.28;5014784;28;20057;-71
2023/03/29 09:35:06;;;;;;;5.75;3.33;;;;;;;13.68;62.11;98211.22;4994640;28;20051;-71
2023/03/29 09:37:33;;;;;;;4.97;3.40;;;;;;;13.68;64.35;98227.25;5014796;28;20077;-72
2023/03/29 09:40:05;;;;;;;5.93;3.63;;;;;;;13.81;64.98;98209.31;5004552;28;20042;-71
2023/03/29 09:42:48;;;;;;;8.02;3.92;;;;;;;14.05;64.07;98192.56;4980741;28;20034;-71
2023/03/29 09:45:14;;;;;;;6.80;3.70;;;;;;;13.54;64.59;98219.31;4963142;28;20053;-71
2023/03/29 09:47:53;;;;;;;4.90;3.85;;;;;;;13.71;66.52;98208.13;4995966;28;20132;-70
2023/03/29 09:50:31;;;;;;;5.43;3.70;;;;;;;14.12;65.01;98229.88;4978904;28;20176;-70
2023/03/29 09:52:59;;;;;;;5.45;3.65;;;;;;;13.50;65.36;98223.41;4995067;28;20206;-70
2023/03/29 09:55:30;;;;;;;6.90;3.90;;;;;;;13.98;66.87;98201.63;4963009;28;20069;-71
2023/03/29 09:58:27;;;;;;;5.93;3.72;;;;;;;13.87;65.46;98202.31;5006439;28;20137;-71
2023/03/29 10:00:57;;;;;;;4.15;3.60;;;;;;;14.24;64.82;98220.19;4994781;28;20428;-71
2023/03/29 10:03:25;;;;;;;6.20;4.30;;;;;;;14.06;66.19;98196.03;4994575;28;20034;-71
2023/03/29 10:06:01;;;;;;;6.90;3.88;;;;;;;13.77;65.99;98224.13;4994779;28;20077;-71
2023/03/29 10:08:28;;;;;;;5.45;3.40;;;;;;;13.44;65.45;98212.75;4995361;28;20073;-71
2023/03/29 10:10:58;;;;;;;5.35;3.63;;;;;;;14.21;65.86;98201.88;4962538;28;20046;-71
2023/03/29 10:13:29;;;;;;;5.32;3.67;;;;;;;14.24;65.93;98204.16;4993727;28;20120;-70
2023/03/29 10:16:06;;;;;;;5.57;4.10;;;;;;;14.11;64.97;98215.72;5026382;28;20155;-70
2023/03/29 10:18:38;;;;;;;8.00;3.92;;;;;;;14.35;64.84;98200.78;5050570;28;20044;-72
2023/03/29 10:21:15;;;;;;;5.95;4.30;;;;;;;14.10;64.67;98202.59;5050178;28;20394;-71
2023/03/29 10:23:41;;;;;;;6.88;4.32;;;;;;;14.06;64.77;98212.06;5016978;28;20045;-72
2023/03/29 10:26:20;;;;;;;8.85;4.57;;;;;;;14.42;64.95;98214.94;5017022;28;20041;-71
2023/03/29 10:28:46;;;;;;;8.75;4.95;;;;;;;13.78;65.29;98201.72;5034167;28;20040;-71
2023/03/29 10:31:17;;;;;;;7.38;4.82;;;;;;;14.24;66.28;98213.00;5017248;28;20391;-73
2023/03/29 10:33:50;;;;;;;6.40;4.57;;;;;;;14.00;68.14;98173.69;5050097;28;20122;-72
2023/03/29 10:36:16;;;;;;;8.50;4.72;;;;;;;13.93;66.06;98188.13;5001198;28;20036;-74
2023/03/29 10:38:43;;;;;;;7.30;4.90;;;;;;;13.77;67.13;98209.94;5001238;28;20123;-71
2023/03/29 10:41:10;;;;;;;8.50;4.93;;;;;;;14.00;67.38;98188.88;5016342;28;20174;-71
2023/03/29 10:43:38;;;;;;;7.45;5.13;;;;;;;13.87;68.30;98199.66;5016215;28;20094;-70
2023/03/29 10:46:24;;;;;;;8.93;5.18;;;;;;;14.48;67.77;98195.38;5015415;28;20052;-72
2023/03/29 10:48:58;;;;;;;7.00;4.95;;;;;;;14.00;67.38;98216.41;4999842;28;20049;-71
2023/03/29 10:51:28;;;;;;;8.65;4.70;;;;;;;14.06;70.30;98186.19;5048758;28;20041;-71
2023/03/29 10:53:58;;;;;;;6.82;4.65;;;;;;;13.85;69.38;98183.03;5014367;28;20467;-70
2023/03/29 10:56:40;;;;;;;8.10;5.43;;;;;;;14.11;70.06;98201.56;5013612;28;20048;-70
2023/03/29 10:59:08;;;;;;;8.65;5.25;;;;;;;13.75;69.66;98188.81;5014256;28;20045;-70
2023/03/29 11:02:05;;;;;;;7.93;5.20;;;;;;;13.79;70.37;98223.91;5013145;28;20044;-70
2023/03/29 11:05:08;;;;;;;6.40;4.85;;;;;;;14.37;69.12;98212.91;5032032;28;20093;-70
2023/03/29 11:07:46;;;;;;;9.20;5.40;;;;;;;13.84;71.53;98187.53;5015524;28;20114;-70
2023/03/29 11:10:11;;;;;;;9.45;5.35;;;;;;;13.14;71.26;98177.78;5015514;28;20036;-70
2023/03/29 11:12:57;;;;;;;10.40;5.45;;;;;;;13.63;70.82;98206.53;5031087;28;20123;-70
2023/03/29 11:15:44;;;;;;;6.15;4.40;;;;;;;13.80;70.67;98206.84;5031765;28;20057;-70
2023/03/29 11:18:47;;;;;;;6.20;4.70;;;;;;;14.26;68.77;98202.09;5014864;28;20044;-71
2023/03/29 11:21:36;;;;;;;6.43;4.28;;;;;;;13.54;71.44;98203.28;5031135;28;20041;-70
2023/03/29 11:24:23;;;;;;;6.32;4.40;;;;;;;13.65;71.62;98200.97;4980159;28;20441;-70
2023/03/29 11:26:55;;;;;;;9.57;5.00;;;;;;;13.45;73.87;98198.41;5013074;28;20364;-70
2023/03/29 11:29:30;;;;;;;7.20;4.32;;;;;;;13.44;73.35;98215.41;5029509;28;20476;-71
2023/03/29 11:32:09;;;;;;;5.60;5.00;;;;;;;13.26;75.13;98204.63;5030481;28;20037;-69
2023/03/29 11:34:38;;;;;;;7.22;5.13;;;;;;;12.78;74.96;98230.69;5034663;28;20068;-70
2023/03/29 11:37:16;;;;;;;9.10;5.45;;;;;;;13.53;77.37;98204.31;5000485;28;20488;-70
2023/03/29 11:40:00;;;;;;;9.57;5.32;;;;;;;13.22;76.22;98236.19;5009220;28;20132;-70
2023/03/29 11:42:30;;;;;;;10.25;6.05;;;;;;;13.01;76.47;98297.75;4997374;28;20084;-70
2023/03/29 11:44:58;;;;;;;8.57;5.63;;;;;;;12.93;77.63;98254.47;5013444;28;20187;-70
2023/03/29 11:47:37;;;;;;;7.57;5.38;;;;;;;12.94;78.50;98210.81;5013586;28;20046;-70
2023/03/29 11:50:27;;;;;;;9.80;5.55;;;;;;;13.31;77.46;98229.63;4980341;28;20119;-70
2023/03/29 11:53:16;;;;;;;7.63;5.32;;;;;;;13.48;75.75;98204.13;5013206;28;20042;-69
2023/03/29 11:55:42;;;;;;;9.32;4.32;;;;;;;13.03;74.42;98246.91;4997182;28;20057;-69
2023/03/29 11:58:18;;;;;;;6.93;4.82;;;;;;;13.06;77.48;98255.31;5012461;28;20033;-69
2023/03/29 12:00:51;;;;;;;6.53;4.85;;;;;;;13.40;77.28;98212.38;4980407;28;20133;-70
2023/03/29 12:03:37;;;;;;;5.90;3.95;;;;;;;12.65;75.23;98249.38;5013314;28;20050;-69